createdAt,value
2019-04-14T00:01:08.822Z,99.90
2019-04-14T00:04:00.814Z,99.90
2019-04-14T00:06:32.930Z,99.90
2019-04-14T00:09:05.825Z,99.90
2019-04-14T00:11:41.252Z,99.90
2019-04-14T00:14:11.834Z,99.90
2019-04-14T00:16:42.434Z,99.90
2019-04-14T00:19:13.055Z,99.90
2019-04-14T00:21:43.696Z,99.90
2019-04-14T00:24:14.113Z,99.90
2019-04-14T00:26:44.644Z,99.90
2019-04-14T00:29:15.258Z,99.90
2019-04-14T00:31:45.764Z,99.90
2019-04-14T00:34:35.394Z,99.90
2019-04-14T00:37:25.198Z,99.90
2019-04-14T00:39:59.759Z,99.90
2019-04-14T00:42:52.168Z,99.90
2019-04-14T00:45:44.466Z,99.90
2019-04-14T00:48:14.282Z,99.90
2019-04-14T00:50:43.088Z,99.90
2019-04-14T00:53:14.258Z,99.90
2019-04-14T00:55:44.603Z,99.90
2019-04-14T00:58:14.959Z,99.90
2019-04-14T01:00:45.444Z,99.90
2019-04-14T01:03:15.793Z,99.90
2019-04-14T01:05:46.216Z,99.90
2019-04-14T01:08:16.610Z,99.90
2019-04-14T01:10:47.666Z,99.90
2019-04-14T01:13:18.216Z,99.90
2019-04-14T01:15:58.673Z,99.90
2019-04-14T01:18:21.230Z,99.90
2019-04-14T01:20:51.769Z,99.90
2019-04-14T01:23:22.123Z,99.90
2019-04-14T01:25:52.464Z,99.90
2019-04-14T01:28:22.850Z,99.90
2019-04-14T01:30:54.358Z,99.90
2019-04-14T01:33:25.028Z,99.90
2019-04-14T01:35:55.464Z,99.90
2019-04-14T01:38:25.764Z,99.90
2019-04-14T01:40:56.048Z,99.90
2019-04-14T01:43:26.388Z,99.90
2019-04-14T01:46:05.222Z,99.90
2019-04-14T01:48:28.962Z,99.90
2019-04-14T01:51:13.510Z,99.90
2019-04-14T01:54:03.859Z,99.90
2019-04-14T01:56:51.933Z,99.90
2019-04-14T01:59:22.363Z,99.90
2019-04-14T02:01:54.278Z,99.90
2019-04-14T02:04:24.684Z,99.90
2019-04-14T02:06:55.281Z,99.90
2019-04-14T02:09:25.670Z,99.90
2019-04-14T02:11:57.223Z,99.90
2019-04-14T02:14:27.856Z,99.90
2019-04-14T02:17:01.347Z,99.90
2019-04-14T02:19:32.673Z,99.90
2019-04-14T02:22:05.481Z,99.90
2019-04-14T02:24:35.934Z,99.90
2019-04-14T02:27:07.724Z,99.90
2019-04-14T02:29:38.396Z,99.90
2019-04-14T02:32:42.583Z,99.90
2019-04-14T02:35:13.319Z,99.90
2019-04-14T02:37:49.200Z,99.90
2019-04-14T02:45:19.388Z,99.90
2019-04-14T02:50:20.837Z,99.90
2019-04-14T02:52:58.588Z,99.90
2019-04-14T02:55:19.355Z,99.90
2019-04-14T02:57:52.167Z,99.90
2019-04-14T03:00:31.572Z,99.90
2019-04-14T03:03:01.373Z,99.90
2019-04-14T03:05:34.130Z,99.90
2019-04-14T03:08:11.211Z,99.90
2019-04-14T03:13:13.075Z,99.90
2019-04-14T03:21:49.103Z,99.90
2019-04-14T03:24:44.445Z,99.90
2019-04-14T03:27:45.830Z,99.90
2019-04-14T03:38:13.265Z,99.90
2019-04-14T03:43:28.357Z,99.90
2019-04-14T03:50:47.994Z,99.90
2019-04-14T03:53:21.756Z,99.90
2019-04-14T03:56:06.689Z,99.90
2019-04-14T03:58:33.561Z,99.90
2019-04-14T04:01:04.553Z,99.90
2019-04-14T04:03:36.806Z,99.90
2019-04-14T04:06:07.564Z,99.90
2019-04-14T04:08:37.918Z,99.90
2019-04-14T04:11:08.398Z,99.90
2019-04-14T04:13:39.068Z,99.90
2019-04-14T04:16:23.035Z,99.90
2019-04-14T04:19:00.856Z,99.90
2019-04-14T04:21:47.112Z,99.90
2019-04-14T04:24:35.231Z,99.90
2019-04-14T04:27:15.807Z,99.90
2019-04-14T04:30:06.002Z,99.90
2019-04-14T04:33:02.474Z,99.90
2019-04-14T04:35:35.752Z,99.90
2019-04-14T04:38:29.086Z,99.90
2019-04-14T04:40:59.515Z,99.90
2019-04-14T04:43:29.833Z,99.90
2019-04-14T04:46:00.595Z,99.90
2019-04-14T04:48:32.886Z,99.90
2019-04-14T04:51:03.497Z,99.90
2019-04-14T04:53:33.957Z,99.90
2019-04-14T04:56:04.401Z,99.90
2019-04-14T04:58:34.888Z,99.90
2019-04-14T05:01:05.719Z,99.90
2019-04-14T05:03:36.398Z,99.90
2019-04-14T05:06:30.889Z,99.90
2019-04-14T05:09:07.743Z,99.90
2019-04-14T05:11:52.578Z,99.90
2019-04-14T05:14:30.494Z,99.90
2019-04-14T05:17:01.456Z,99.90
2019-04-14T05:19:35.941Z,99.90
2019-04-14T05:22:04.876Z,99.90
2019-04-14T05:24:35.415Z,99.90
2019-04-14T05:27:05.795Z,99.90
2019-04-14T05:29:36.497Z,99.90
2019-04-14T05:32:06.957Z,99.90
2019-04-14T05:34:37.318Z,99.90
2019-04-14T05:37:07.673Z,99.90
2019-04-14T05:39:37.949Z,99.90
2019-04-14T05:42:14.050Z,99.90
2019-04-14T05:44:40.518Z,99.90
2019-04-14T05:47:11.150Z,99.90
2019-04-14T05:49:47.066Z,99.90
2019-04-14T05:52:14.565Z,99.90
2019-04-14T05:54:45.005Z,99.90
2019-04-14T05:57:15.568Z,99.90
2019-04-14T05:59:46.206Z,99.90
2019-04-14T06:02:16.638Z,99.90
2019-04-14T06:04:48.338Z,99.90
2019-04-14T06:07:18.698Z,99.90
2019-04-14T06:09:49.125Z,99.90
2019-04-14T06:12:19.474Z,99.90
2019-04-14T06:14:49.758Z,99.90
2019-04-14T06:17:20.106Z,99.90
2019-04-14T06:19:50.462Z,99.90
2019-04-14T06:22:20.714Z,99.90
2019-04-14T06:24:51.002Z,99.90
2019-04-14T06:27:21.294Z,99.90
2019-04-14T06:29:53.709Z,99.90
2019-04-14T06:32:42.136Z,99.90
2019-04-14T06:35:21.362Z,99.90
2019-04-14T06:37:58.083Z,99.90
2019-04-14T06:40:31.222Z,99.90
2019-04-14T06:43:01.582Z,99.90
2019-04-14T06:45:31.854Z,99.90
2019-04-14T06:48:02.191Z,99.90
2019-04-14T06:50:32.550Z,99.90
2019-04-14T06:53:02.874Z,99.90
2019-04-14T06:55:33.238Z,99.90
2019-04-14T06:58:03.507Z,99.90
2019-04-14T07:00:34.658Z,99.90
2019-04-14T07:03:05.011Z,99.90
2019-04-14T07:05:35.289Z,99.90
2019-04-14T07:08:05.735Z,99.90
2019-04-14T07:10:36.025Z,99.90
2019-04-14T07:13:06.374Z,99.90
2019-04-14T07:15:36.866Z,99.90
2019-04-14T07:18:07.209Z,99.90
2019-04-14T07:20:37.502Z,99.90
2019-04-14T07:23:07.841Z,99.90
2019-04-14T07:25:39.178Z,99.90
2019-04-14T07:28:09.518Z,99.90
2019-04-14T07:30:49.639Z,99.90
2019-04-14T07:33:32.718Z,99.90
2019-04-14T07:36:28.141Z,99.90
2019-04-14T07:39:16.094Z,99.90
2019-04-14T07:41:54.778Z,99.90
2019-04-14T07:44:31.567Z,99.90
2019-04-14T07:47:21.058Z,99.90
2019-04-14T07:50:14.804Z,99.90
2019-04-14T07:53:03.599Z,99.90
2019-04-14T07:55:41.251Z,99.90
2019-04-14T07:58:33.695Z,99.90
2019-04-14T08:01:16.889Z,99.90
2019-04-14T08:04:04.894Z,99.90
2019-04-14T08:06:38.211Z,99.90
2019-04-14T08:09:07.913Z,99.90
2019-04-14T08:11:38.234Z,99.90
2019-04-14T08:14:08.947Z,99.90
2019-04-14T08:16:39.382Z,99.90
2019-04-14T08:19:09.762Z,99.90
2019-04-14T08:21:40.138Z,99.90
2019-04-14T08:24:10.417Z,99.90
2019-04-14T08:26:40.857Z,99.90
2019-04-14T08:29:11.168Z,99.90
2019-04-14T08:31:41.619Z,99.90
2019-04-14T08:34:11.890Z,99.90
2019-04-14T08:36:42.338Z,99.90
2019-04-14T08:39:12.619Z,99.90
2019-04-14T08:42:10.929Z,99.90
2019-04-14T08:44:43.468Z,99.90
2019-04-14T08:47:31.791Z,99.90
2019-04-14T08:50:10.791Z,99.90
2019-04-14T08:53:05.207Z,99.90
2019-04-14T08:56:13.192Z,99.90
2019-04-14T08:59:05.407Z,99.90
2019-04-14T09:02:00.611Z,99.90
2019-04-14T09:04:41.039Z,99.90
2019-04-14T09:07:16.330Z,99.90
2019-04-14T09:09:50.762Z,99.90
2019-04-14T09:12:24.672Z,99.90
2019-04-14T09:14:57.227Z,99.90
2019-04-14T09:17:28.438Z,99.90
2019-04-14T09:19:58.818Z,99.90
2019-04-14T09:22:29.162Z,99.90
2019-04-14T09:24:59.527Z,99.90
2019-04-14T09:27:29.862Z,99.90
2019-04-14T09:30:00.213Z,99.90
2019-04-14T09:32:31.098Z,99.90
2019-04-14T09:35:01.462Z,99.90
2019-04-14T09:37:31.822Z,99.90
2019-04-14T09:40:02.238Z,99.90
2019-04-14T09:42:32.639Z,99.90
2019-04-14T09:45:03.066Z,99.90
2019-04-14T09:47:33.438Z,99.90
2019-04-14T09:50:04.621Z,99.90
2019-04-14T09:52:35.071Z,99.90
2019-04-14T09:55:06.094Z,99.90
2019-04-14T09:57:36.534Z,99.90
2019-04-14T10:00:08.842Z,99.90
2019-04-14T10:02:39.321Z,99.90
2019-04-14T10:05:09.762Z,99.90
2019-04-14T10:07:41.034Z,99.90
2019-04-14T10:10:11.570Z,99.90
2019-04-14T10:12:42.047Z,99.90
2019-04-14T10:15:12.478Z,99.90
2019-04-14T10:17:42.822Z,99.90
2019-04-14T10:20:13.242Z,99.90
2019-04-14T10:22:43.624Z,99.90
2019-04-14T10:25:13.938Z,99.90
2019-04-14T10:27:44.319Z,99.90
2019-04-14T10:30:14.758Z,99.90
2019-04-14T10:32:45.046Z,99.90
2019-04-14T10:35:15.355Z,99.80
2019-04-14T10:37:45.655Z,99.90
2019-04-14T10:40:16.002Z,99.90
2019-04-14T10:42:46.330Z,99.30
2019-04-14T10:45:18.362Z,97.80
2019-04-14T10:47:50.299Z,97.90
2019-04-14T10:50:30.763Z,97.90
2019-04-14T10:52:53.048Z,98.60
2019-04-14T10:55:23.358Z,97.60
2019-04-14T10:57:53.810Z,97.60
2019-04-14T11:00:24.180Z,97.00
2019-04-14T11:02:54.494Z,96.70
2019-04-14T11:05:26.838Z,95.50
2019-04-14T11:07:57.223Z,96.60
2019-04-14T11:10:27.575Z,96.10
2019-04-14T11:12:59.028Z,94.70
2019-04-14T11:15:29.394Z,94.30
2019-04-14T11:17:59.727Z,97.40
2019-04-14T11:20:31.067Z,96.80
2019-04-14T11:23:03.629Z,96.00
2019-04-14T11:25:34.234Z,96.40
2019-04-14T11:28:04.691Z,96.30
2019-04-14T11:30:35.218Z,96.50
2019-04-14T11:33:20.223Z,96.90
2019-04-14T11:36:01.179Z,96.20
2019-04-14T11:38:38.074Z,95.90
2019-04-14T11:41:11.675Z,96.30
2019-04-14T11:43:42.054Z,96.30
2019-04-14T11:46:12.587Z,95.10
2019-04-14T11:48:43.031Z,94.70
2019-04-14T11:51:13.407Z,93.80
2019-04-14T11:53:43.690Z,93.40
2019-04-14T11:56:14.159Z,94.50
2019-04-14T11:58:45.717Z,94.80
2019-04-14T12:01:50.602Z,95.40
2019-04-14T12:04:47.531Z,94.80
2019-04-14T12:07:36.051Z,94.50
2019-04-14T12:10:15.023Z,95.50
2019-04-14T12:12:45.378Z,94.90
2019-04-14T12:15:16.538Z,95.00
2019-04-14T12:17:47.266Z,94.60
2019-04-14T12:20:17.638Z,94.50
2019-04-14T12:22:48.038Z,94.50
2019-04-14T12:25:18.506Z,95.00
2019-04-14T12:27:48.987Z,95.20
2019-04-14T12:30:20.169Z,94.80
2019-04-14T12:32:50.782Z,94.30
2019-04-14T12:35:21.306Z,94.00
2019-04-14T12:37:51.695Z,93.80
2019-04-14T12:40:22.122Z,94.50
2019-04-14T12:43:17.664Z,94.70
2019-04-14T12:46:06.309Z,93.70
2019-04-14T12:48:45.571Z,93.90
2019-04-14T12:51:26.300Z,93.50
2019-04-14T12:53:56.759Z,94.10
2019-04-14T12:56:28.472Z,93.50
2019-04-14T12:59:17.988Z,93.20
2019-04-14T13:02:06.330Z,93.90
2019-04-14T13:04:36.871Z,92.70
2019-04-14T13:07:07.204Z,93.70
2019-04-14T13:09:37.698Z,93.20
2019-04-14T13:12:10.428Z,93.50
2019-04-14T13:14:40.982Z,94.00
2019-04-14T13:17:11.271Z,93.80
2019-04-14T13:19:41.715Z,93.70
2019-04-14T13:22:12.170Z,93.50
2019-04-14T13:24:42.534Z,93.60
2019-04-14T13:27:12.987Z,93.70
2019-04-14T13:29:43.367Z,93.20
2019-04-14T13:32:13.895Z,92.80
2019-04-14T13:34:44.263Z,92.80
2019-04-14T13:37:14.707Z,92.20
2019-04-14T13:39:45.095Z,92.80
2019-04-14T13:42:15.538Z,92.10
2019-04-14T13:44:46.011Z,91.60
2019-04-14T13:47:16.399Z,92.50
2019-04-14T13:49:46.858Z,92.10
2019-04-14T13:52:17.210Z,93.20
2019-04-14T13:54:47.648Z,92.40
2019-04-14T13:57:17.988Z,93.30
2019-04-14T13:59:48.427Z,93.00
2019-04-14T14:02:18.812Z,92.40
2019-04-14T14:04:49.199Z,92.60
2019-04-14T14:07:20.052Z,92.00
2019-04-14T14:09:50.412Z,91.70
2019-04-14T14:12:38.700Z,92.10
2019-04-14T14:15:21.595Z,92.10
2019-04-14T14:18:09.620Z,92.90
2019-04-14T14:21:17.375Z,92.60
2019-04-14T14:24:07.829Z,92.10
2019-04-14T14:26:39.007Z,92.60
2019-04-14T14:29:09.455Z,92.00
2019-04-14T14:31:39.995Z,91.90
2019-04-14T14:34:10.376Z,91.40
2019-04-14T14:36:40.796Z,91.40
2019-04-14T14:39:11.303Z,91.20
2019-04-14T14:41:41.686Z,91.50
2019-04-14T14:44:12.199Z,92.10
2019-04-14T14:46:52.194Z,92.00
2019-04-14T14:49:47.576Z,92.80
2019-04-14T14:52:19.329Z,91.80
2019-04-14T14:54:49.743Z,91.40
2019-04-14T14:57:20.195Z,91.50
2019-04-14T14:59:50.731Z,91.30
2019-04-14T15:02:21.261Z,92.00
2019-04-14T15:04:51.626Z,92.10
2019-04-14T15:07:22.044Z,92.70
2019-04-14T15:09:52.421Z,92.70
2019-04-14T15:12:23.678Z,92.70
2019-04-14T15:14:54.053Z,93.50
2019-04-14T15:17:24.785Z,93.10
2019-04-14T15:19:55.126Z,93.30
2019-04-14T15:22:25.549Z,92.20
2019-04-14T15:24:55.877Z,92.00
2019-04-14T15:27:26.173Z,92.10
2019-04-14T15:29:56.458Z,91.90
2019-04-14T15:32:26.737Z,92.00
2019-04-14T15:34:57.177Z,92.30
2019-04-14T15:37:27.493Z,92.70
2019-04-14T15:39:57.815Z,92.60
2019-04-14T15:42:28.277Z,91.70
2019-04-14T15:44:58.606Z,92.00
2019-04-14T15:47:28.949Z,92.50
2019-04-14T15:49:59.248Z,92.10
2019-04-14T15:52:29.594Z,92.50
2019-04-14T15:55:00.062Z,91.90
2019-04-14T15:57:49.563Z,91.40
2019-04-14T16:00:38.033Z,92.70
2019-04-14T16:03:20.270Z,92.80
2019-04-14T16:06:12.857Z,93.40
2019-04-14T16:09:02.390Z,94.00
2019-04-14T16:11:56.193Z,93.80
2019-04-14T16:14:45.388Z,94.00
2019-04-14T16:17:52.921Z,93.50
2019-04-14T16:20:29.417Z,93.50
2019-04-14T16:22:59.785Z,93.30
2019-04-14T16:25:42.057Z,93.20
2019-04-14T16:28:22.969Z,93.70
2019-04-14T16:31:21.749Z,94.40
2019-04-14T16:34:10.629Z,94.00
2019-04-14T16:36:42.042Z,94.50
2019-04-14T16:39:12.426Z,94.40
2019-04-14T16:41:43.118Z,95.10
2019-04-14T16:44:13.558Z,95.30
2019-04-14T16:46:44.095Z,95.40
2019-04-14T16:49:14.522Z,95.80
2019-04-14T16:51:49.450Z,95.20
2019-04-14T16:54:26.426Z,95.30
2019-04-14T16:57:08.646Z,95.20
2019-04-14T16:59:40.081Z,95.50
2019-04-14T17:02:11.368Z,95.70
2019-04-14T17:04:41.964Z,95.80
2019-04-14T17:07:12.321Z,96.40
2019-04-14T17:09:42.739Z,96.80
2019-04-14T17:12:14.681Z,96.70
2019-04-14T17:14:58.181Z,97.10
2019-04-14T17:17:40.069Z,97.70
2019-04-14T17:20:40.947Z,98.30
2019-04-14T17:23:19.414Z,98.50
2019-04-14T17:25:55.062Z,98.80
2019-04-14T17:28:38.709Z,98.10
2019-04-14T17:31:17.088Z,98.10
2019-04-14T17:34:09.494Z,98.00
2019-04-14T17:36:51.623Z,98.30
2019-04-14T17:39:50.445Z,98.30
2019-04-14T17:42:27.527Z,99.20
2019-04-14T17:45:19.774Z,99.40
2019-04-14T17:48:07.689Z,99.60
2019-04-14T17:50:57.030Z,99.80
2019-04-14T17:53:38.927Z,99.90
2019-04-14T17:56:34.206Z,99.90
2019-04-14T17:59:11.225Z,99.90
2019-04-14T18:01:54.777Z,99.90
2019-04-14T18:04:50.394Z,99.90
2019-04-14T18:07:25.077Z,99.90
2019-04-14T18:10:20.670Z,99.90
2019-04-14T18:13:13.786Z,99.90
2019-04-14T18:16:02.119Z,99.90
2019-04-14T18:18:52.133Z,99.90
2019-04-14T18:21:22.503Z,99.90
2019-04-14T18:23:52.790Z,99.90
2019-04-14T18:26:23.158Z,99.90
2019-04-14T18:29:12.675Z,99.90
2019-04-14T18:32:10.126Z,99.90
2019-04-14T18:34:45.866Z,99.90
2019-04-14T18:37:32.725Z,99.90
2019-04-14T18:40:22.198Z,99.90
2019-04-14T18:43:06.762Z,99.90
2019-04-14T18:45:56.313Z,99.90
2019-04-14T18:48:34.274Z,99.90
2019-04-14T18:51:10.575Z,99.90
2019-04-14T18:53:58.574Z,99.90
2019-04-14T18:56:46.854Z,99.90
2019-04-14T18:59:36.535Z,99.90
2019-04-14T19:02:07.288Z,99.90
2019-04-14T19:04:37.723Z,99.90
2019-04-14T19:07:08.715Z,99.90
2019-04-14T19:09:40.150Z,99.90
2019-04-14T19:12:35.618Z,99.90
2019-04-14T19:15:31.395Z,99.90
2019-04-14T19:18:26.878Z,99.90
2019-04-14T19:21:00.427Z,99.90
2019-04-14T19:23:31.070Z,99.90
2019-04-14T19:26:01.614Z,99.90
2019-04-14T19:28:31.948Z,99.90
2019-04-14T19:31:02.379Z,99.90
2019-04-14T19:33:33.788Z,99.90
2019-04-14T19:36:04.366Z,99.90
2019-04-14T19:38:34.838Z,99.90
2019-04-14T19:41:05.751Z,99.90
2019-04-14T19:43:36.098Z,99.90
2019-04-14T19:46:06.442Z,99.90
2019-04-14T19:48:36.903Z,99.90
2019-04-14T19:51:07.261Z,99.90
2019-04-14T19:53:37.630Z,99.90
2019-04-14T19:56:08.029Z,99.90
2019-04-14T19:58:38.355Z,99.90
2019-04-14T20:01:08.852Z,99.90
2019-04-14T20:03:39.188Z,99.90
2019-04-14T20:06:09.684Z,99.90
2019-04-14T20:08:40.030Z,99.90
2019-04-14T20:11:10.570Z,99.90
2019-04-14T20:13:44.551Z,99.90
2019-04-14T20:16:32.782Z,99.90
2019-04-14T20:19:24.059Z,99.90
2019-04-14T20:22:01.202Z,99.90
2019-04-14T20:24:53.462Z,99.90
2019-04-14T20:27:36.598Z,99.90
2019-04-14T20:30:11.284Z,99.90
2019-04-14T20:32:42.498Z,99.90
2019-04-14T20:35:14.717Z,99.90
2019-04-14T20:37:45.137Z,99.90
2019-04-14T20:40:15.663Z,99.90
2019-04-14T20:42:46.074Z,99.90
2019-04-14T20:45:18.376Z,99.90
2019-04-14T20:47:48.718Z,99.90
2019-04-14T20:50:19.127Z,99.90
2019-04-14T20:52:49.490Z,99.90
2019-04-14T20:55:20.400Z,99.90
2019-04-14T20:57:50.765Z,99.90
2019-04-14T21:00:21.829Z,99.90
2019-04-14T21:03:09.775Z,99.90
2019-04-14T21:06:02.319Z,99.90
2019-04-14T21:08:52.019Z,99.90
2019-04-14T21:11:26.123Z,99.90
2019-04-14T21:14:11.762Z,99.90
2019-04-14T21:17:06.950Z,99.90
2019-04-14T21:19:45.684Z,99.90
2019-04-14T21:22:23.679Z,99.90
2019-04-14T21:25:00.526Z,99.90
2019-04-14T21:28:05.531Z,99.90
2019-04-14T21:30:43.131Z,99.90
2019-04-14T21:33:41.449Z,99.90
2019-04-14T21:36:16.086Z,99.90
2019-04-14T21:39:08.193Z,99.90
2019-04-14T21:41:40.251Z,99.90
2019-04-14T21:44:10.491Z,99.90
2019-04-14T21:46:40.847Z,99.90
2019-04-14T21:49:11.259Z,99.90
2019-04-14T21:51:55.523Z,99.90
2019-04-14T21:54:25.980Z,99.90
2019-04-14T21:57:21.770Z,99.90
2019-04-14T22:00:15.823Z,99.90
2019-04-14T22:03:05.799Z,99.90
2019-04-14T22:05:42.231Z,99.90
2019-04-14T22:08:19.496Z,99.90
2019-04-14T22:10:55.510Z,99.90
2019-04-14T22:13:25.908Z,99.90
2019-04-14T22:15:56.306Z,99.90
2019-04-14T22:18:26.655Z,99.90
2019-04-14T22:20:57.058Z,99.90
2019-04-14T22:23:27.502Z,99.90
2019-04-14T22:25:57.988Z,99.90
2019-04-14T22:28:28.468Z,99.90
2019-04-14T22:30:59.843Z,99.90
2019-04-14T22:33:30.715Z,99.90
2019-04-14T22:36:03.735Z,99.90
2019-04-14T22:38:34.179Z,99.90
2019-04-14T22:41:05.015Z,99.90
2019-04-14T22:43:35.343Z,99.90
2019-04-14T22:46:05.767Z,99.90
2019-04-14T22:48:36.088Z,99.90
2019-04-14T22:51:06.421Z,99.90
2019-04-14T22:53:36.723Z,99.90
2019-04-14T22:56:14.619Z,99.90
2019-04-14T22:58:44.927Z,99.90
2019-04-14T23:01:26.420Z,99.90
2019-04-14T23:04:17.591Z,99.90
2019-04-14T23:07:06.574Z,99.90
2019-04-14T23:09:45.303Z,99.90
2019-04-14T23:12:40.801Z,99.90
2019-04-14T23:15:26.819Z,99.90
2019-04-14T23:21:10.024Z,99.90
2019-04-14T23:23:58.319Z,99.90
2019-04-14T23:26:28.643Z,99.90
2019-04-14T23:28:58.911Z,99.90
2019-04-14T23:31:29.419Z,99.90
2019-04-14T23:33:59.851Z,99.90
2019-04-14T23:36:30.139Z,99.90
2019-04-14T23:39:00.486Z,99.90
2019-04-14T23:41:31.117Z,99.90
2019-04-14T23:44:01.367Z,99.90
2019-04-14T23:46:31.644Z,99.90
2019-04-14T23:49:01.975Z,99.90
2019-04-14T23:51:32.432Z,99.90
2019-04-14T23:54:02.744Z,99.90
2019-04-14T23:56:33.227Z,99.90
2019-04-14T23:59:04.169Z,99.90
